Anchorage/Elmendorf AFB, Alaska
Current Conditions -  °F | °C
As of 7:58 AM on Wednesday 26 Nov 2014 (Local Time) from PAED Reporting Station
Overcast Overcast  
Wind Chill: 20°   Ceiling: 4000
Heat Index: 27°   Visibility: 10mi
Dew Point: 25°   Wind: 7mph
Humidity: 92%   Direction: 330°NNW
Pressure: 30.33"   Gusts: NA
Location:  61.25°N, 149.79°W
Report Text: PAED 261658Z AUTO 33006KT 10SM OVC040 M03/M04 A3033 RMK AO2 SLP269 T10261037
Loading
Personal Weather Stations






























Interactive Weather Map New forecast layout! Learn more

10-Day Weather Forecast

Advertisements
Track Severe Weather on mobile